sensor_id;sensor_type;location;lat;lon;timestamp;P1;durP1;ratioP1;P2;durP2;ratioP2
2848;SDS011;59355;52.416;13.412;2023-03-01T00:00:41;27.37;;;21.57;;
2848;SDS011;59355;52.416;13.412;2023-03-01T00:03:06;29.80;;;21.70;;
2848;SDS011;59355;52.416;13.412;2023-03-01T00:05:31;23.30;;;18.70;;
2848;SDS011;59355;52.416;13.412;2023-03-01T00:07:57;23.87;;;20.00;;
2848;SDS011;59355;52.416;13.412;2023-03-01T00:10:22;30.40;;;21.80;;
2848;SDS011;59355;52.416;13.412;2023-03-01T00:12:47;27.10;;;21.77;;
2848;SDS011;59355;52.416;13.412;2023-03-01T00:15:13;26.70;;;20.50;;
2848;SDS011;59355;52.416;13.412;2023-03-01T00:17:38;26.33;;;21.23;;
2848;SDS011;59355;52.416;13.412;2023-03-01T00:20:04;25.17;;;21.13;;
2848;SDS011;59355;52.416;13.412;2023-03-01T00:22:33;28.80;;;20.07;;
2848;SDS011;59355;52.416;13.412;2023-03-01T00:24:58;28.43;;;22.13;;
2848;SDS011;59355;52.416;13.412;2023-03-01T00:27:23;23.97;;;21.17;;
2848;SDS011;59355;52.416;13.412;2023-03-01T00:29:49;26.77;;;20.20;;
2848;SDS011;59355;52.416;13.412;2023-03-01T00:32:14;26.57;;;20.20;;
2848;SDS011;59355;52.416;13.412;2023-03-01T00:34:39;25.20;;;20.30;;
2848;SDS011;59355;52.416;13.412;2023-03-01T00:37:05;23.37;;;19.80;;
2848;SDS011;59355;52.416;13.412;2023-03-01T00:39:30;25.77;;;21.43;;
2848;SDS011;59355;52.416;13.412;2023-03-01T00:41:57;26.57;;;20.67;;
2848;SDS011;59355;52.416;13.412;2023-03-01T00:44:22;27.87;;;21.40;;
2848;SDS011;59355;52.416;13.412;2023-03-01T00:46:47;23.53;;;20.80;;
2848;SDS011;59355;52.416;13.412;2023-03-01T00:49:13;21.73;;;19.43;;
2848;SDS011;59355;52.416;13.412;2023-03-01T00:51:38;26.40;;;20.27;;
2848;SDS011;59355;52.416;13.412;2023-03-01T00:54:07;24.80;;;19.87;;
2848;SDS011;59355;52.416;13.412;2023-03-01T00:56:33;21.20;;;18.53;;
2848;SDS011;59355;52.416;13.412;2023-03-01T00:58:58;27.03;;;19.80;;
2848;SDS011;59355;52.416;13.412;2023-03-01T01:01:24;27.23;;;20.30;;
2848;SDS011;59355;52.416;13.412;2023-03-01T01:03:57;24.40;;;20.40;;
2848;SDS011;59355;52.416;13.412;2023-03-01T01:06:31;25.80;;;20.60;;
2848;SDS011;59355;52.416;13.412;2023-03-01T01:09:02;24.97;;;20.63;;
2848;SDS011;59355;52.416;13.412;2023-03-01T01:11:29;26.07;;;21.70;;
2848;SDS011;59355;52.416;13.412;2023-03-01T01:13:55;24.53;;;19.23;;
2848;SDS011;59355;52.416;13.412;2023-03-01T01:16:22;25.50;;;20.47;;
2848;SDS011;59355;52.416;13.412;2023-03-01T01:18:49;22.43;;;19.53;;
2848;SDS011;59355;52.416;13.412;2023-03-01T01:21:15;25.80;;;21.17;;
2848;SDS011;59355;52.416;13.412;2023-03-01T01:23:42;28.27;;;19.70;;
2848;SDS011;59355;52.416;13.412;2023-03-01T01:26:10;24.87;;;19.90;;
2848;SDS011;59355;52.416;13.412;2023-03-01T01:28:36;23.73;;;19.70;;
2848;SDS011;59355;52.416;13.412;2023-03-01T01:31:01;26.00;;;19.87;;
2848;SDS011;59355;52.416;13.412;2023-03-01T01:33:27;21.63;;;18.70;;
2848;SDS011;59355;52.416;13.412;2023-03-01T01:35:52;25.33;;;20.10;;
2848;SDS011;59355;52.416;13.412;2023-03-01T01:38:18;31.60;;;20.43;;
2848;SDS011;59355;52.416;13.412;2023-03-01T01:40:47;23.47;;;19.70;;
2848;SDS011;59355;52.416;13.412;2023-03-01T01:43:21;26.83;;;20.60;;
2848;SDS011;59355;52.416;13.412;2023-03-01T01:45:50;25.80;;;20.30;;
2848;SDS011;59355;52.416;13.412;2023-03-01T01:48:18;27.00;;;18.83;;
2848;SDS011;59355;52.416;13.412;2023-03-01T01:50:45;23.93;;;19.73;;
2848;SDS011;59355;52.416;13.412;2023-03-01T01:53:17;27.33;;;19.67;;
2848;SDS011;59355;52.416;13.412;2023-03-01T01:55:45;24.70;;;18.47;;
2848;SDS011;59355;52.416;13.412;2023-03-01T01:58:12;24.90;;;19.40;;
2848;SDS011;59355;52.416;13.412;2023-03-01T02:00:40;21.70;;;19.43;;
2848;SDS011;59355;52.416;13.412;2023-03-01T02:03:07;31.83;;;22.27;;
2848;SDS011;59355;52.416;13.412;2023-03-01T02:08:08;33.90;;;25.67;;
2848;SDS011;59355;52.416;13.412;2023-03-01T02:10:33;27.80;;;24.27;;
2848;SDS011;59355;52.416;13.412;2023-03-01T02:13:00;30.83;;;23.40;;
2848;SDS011;59355;52.416;13.412;2023-03-01T02:15:25;28.03;;;22.83;;
2848;SDS011;59355;52.416;13.412;2023-03-01T02:17:51;32.80;;;24.20;;
2848;SDS011;59355;52.416;13.412;2023-03-01T02:20:23;30.10;;;24.20;;
2848;SDS011;59355;52.416;13.412;2023-03-01T02:22:52;28.87;;;22.87;;
2848;SDS011;59355;52.416;13.412;2023-03-01T02:30:44;28.03;;;21.63;;
2848;SDS011;59355;52.416;13.412;2023-03-01T02:33:30;25.30;;;22.10;;
2848;SDS011;59355;52.416;13.412;2023-03-01T02:35:57;30.70;;;23.17;;
2848;SDS011;59355;52.416;13.412;2023-03-01T02:38:24;29.10;;;23.47;;
2848;SDS011;59355;52.416;13.412;2023-03-01T02:40:49;32.57;;;22.50;;
2848;SDS011;59355;52.416;13.412;2023-03-01T02:43:16;29.13;;;22.80;;
2848;SDS011;59355;52.416;13.412;2023-03-01T02:45:47;29.47;;;22.00;;
2848;SDS011;59355;52.416;13.412;2023-03-01T02:48:14;28.90;;;21.67;;
2848;SDS011;59355;52.416;13.412;2023-03-01T02:50:52;28.77;;;22.67;;
2848;SDS011;59355;52.416;13.412;2023-03-01T02:53:39;28.17;;;21.67;;
2848;SDS011;59355;52.416;13.412;2023-03-01T02:56:09;27.33;;;21.00;;
2848;SDS011;59355;52.416;13.412;2023-03-01T02:58:37;28.70;;;21.73;;
2848;SDS011;59355;52.416;13.412;2023-03-01T03:01:10;25.10;;;21.73;;
2848;SDS011;59355;52.416;13.412;2023-03-01T03:03:35;27.27;;;21.73;;
2848;SDS011;59355;52.416;13.412;2023-03-01T03:06:00;28.47;;;21.97;;
2848;SDS011;59355;52.416;13.412;2023-03-01T03:08:26;28.80;;;22.10;;
2848;SDS011;59355;52.416;13.412;2023-03-01T03:10:51;30.63;;;23.53;;
2848;SDS011;59355;52.416;13.412;2023-03-01T03:13:16;25.33;;;20.10;;
2848;SDS011;59355;52.416;13.412;2023-03-01T03:15:42;27.30;;;21.07;;
2848;SDS011;59355;52.416;13.412;2023-03-01T03:18:09;27.90;;;21.47;;
2848;SDS011;59355;52.416;13.412;2023-03-01T03:20:38;26.70;;;21.37;;
2848;SDS011;59355;52.416;13.412;2023-03-01T03:23:04;28.60;;;20.70;;
2848;SDS011;59355;52.416;13.412;2023-03-01T03:25:30;27.80;;;20.97;;
2848;SDS011;59355;52.416;13.412;2023-03-01T03:27:55;29.10;;;22.50;;
2848;SDS011;59355;52.416;13.412;2023-03-01T03:30:22;29.00;;;21.90;;
2848;SDS011;59355;52.416;13.412;2023-03-01T03:32:50;26.90;;;19.70;;
2848;SDS011;59355;52.416;13.412;2023-03-01T03:35:18;26.33;;;21.33;;
2848;SDS011;59355;52.416;13.412;2023-03-01T03:37:50;26.77;;;20.63;;
2848;SDS011;59355;52.416;13.412;2023-03-01T03:40:41;33.03;;;21.23;;
2848;SDS011;59355;52.416;13.412;2023-03-01T03:43:12;25.93;;;19.93;;
2848;SDS011;59355;52.416;13.412;2023-03-01T03:45:38;28.47;;;22.33;;
2848;SDS011;59355;52.416;13.412;2023-03-01T03:48:05;28.53;;;21.80;;
2848;SDS011;59355;52.416;13.412;2023-03-01T03:50:31;26.93;;;22.30;;
2848;SDS011;59355;52.416;13.412;2023-03-01T03:52:57;27.30;;;20.77;;
2848;SDS011;59355;52.416;13.412;2023-03-01T03:55:22;27.50;;;21.83;;
2848;SDS011;59355;52.416;13.412;2023-03-01T03:57:47;29.87;;;21.93;;
2848;SDS011;59355;52.416;13.412;2023-03-01T04:00:19;26.70;;;22.13;;
2848;SDS011;59355;52.416;13.412;2023-03-01T04:02:46;24.07;;;19.90;;
2848;SDS011;59355;52.416;13.412;2023-03-01T04:05:13;26.27;;;19.93;;
2848;SDS011;59355;52.416;13.412;2023-03-01T04:07:39;27.80;;;20.20;;
2848;SDS011;59355;52.416;13.412;2023-03-01T04:10:05;26.80;;;20.60;;
2848;SDS011;59355;52.416;13.412;2023-03-01T04:12:34;33.73;;;22.80;;
2848;SDS011;59355;52.416;13.412;2023-03-01T04:15:03;27.83;;;21.87;;
2848;SDS011;59355;52.416;13.412;2023-03-01T04:17:37;28.20;;;22.27;;
2848;SDS011;59355;52.416;13.412;2023-03-01T04:20:04;30.60;;;22.17;;
2848;SDS011;59355;52.416;13.412;2023-03-01T04:22:30;25.50;;;20.90;;
2848;SDS011;59355;52.416;13.412;2023-03-01T04:24:56;29.17;;;21.70;;
2848;SDS011;59355;52.416;13.412;2023-03-01T04:27:22;24.53;;;19.83;;
2848;SDS011;59355;52.416;13.412;2023-03-01T04:29:47;24.80;;;21.13;;
2848;SDS011;59355;52.416;13.412;2023-03-01T04:32:12;28.90;;;21.47;;
2848;SDS011;59355;52.416;13.412;2023-03-01T04:34:41;25.40;;;21.50;;
2848;SDS011;59355;52.416;13.412;2023-03-01T04:37:06;25.40;;;20.87;;
2848;SDS011;59355;52.416;13.412;2023-03-01T04:39:31;30.27;;;22.13;;
2848;SDS011;59355;52.416;13.412;2023-03-01T04:41:57;23.67;;;19.70;;
2848;SDS011;59355;52.416;13.412;2023-03-01T04:44:22;28.30;;;22.07;;
2848;SDS011;59355;52.416;13.412;2023-03-01T04:46:48;26.30;;;20.70;;
2848;SDS011;59355;52.416;13.412;2023-03-01T04:49:14;27.90;;;22.47;;
2848;SDS011;59355;52.416;13.412;2023-03-01T04:51:40;30.87;;;22.13;;
2848;SDS011;59355;52.416;13.412;2023-03-01T04:54:06;27.47;;;20.13;;
2848;SDS011;59355;52.416;13.412;2023-03-01T04:56:33;25.70;;;20.87;;
2848;SDS011;59355;52.416;13.412;2023-03-01T04:58:59;26.97;;;20.43;;
2848;SDS011;59355;52.416;13.412;2023-03-01T05:01:25;29.87;;;21.00;;
2848;SDS011;59355;52.416;13.412;2023-03-01T05:03:50;24.50;;;20.83;;
2848;SDS011;59355;52.416;13.412;2023-03-01T05:06:17;26.20;;;21.93;;
2848;SDS011;59355;52.416;13.412;2023-03-01T05:08:44;25.40;;;20.80;;
2848;SDS011;59355;52.416;13.412;2023-03-01T05:11:10;30.57;;;22.57;;
2848;SDS011;59355;52.416;13.412;2023-03-01T05:13:36;26.37;;;21.53;;
2848;SDS011;59355;52.416;13.412;2023-03-01T05:16:03;25.53;;;21.27;;
2848;SDS011;59355;52.416;13.412;2023-03-01T05:18:30;29.17;;;22.83;;
2848;SDS011;59355;52.416;13.412;2023-03-01T05:21:01;28.67;;;20.70;;
2848;SDS011;59355;52.416;13.412;2023-03-01T05:23:30;30.30;;;21.27;;
2848;SDS011;59355;52.416;13.412;2023-03-01T05:25:59;26.30;;;21.10;;
2848;SDS011;59355;52.416;13.412;2023-03-01T05:28:26;28.57;;;20.83;;
2848;SDS011;59355;52.416;13.412;2023-03-01T05:30:53;32.03;;;22.63;;
2848;SDS011;59355;52.416;13.412;2023-03-01T05:33:19;33.70;;;22.00;;
2848;SDS011;59355;52.416;13.412;2023-03-01T05:35:46;29.73;;;21.03;;
2848;SDS011;59355;52.416;13.412;2023-03-01T05:38:14;27.70;;;21.70;;
2848;SDS011;59355;52.416;13.412;2023-03-01T05:40:44;27.00;;;22.53;;
2848;SDS011;59355;52.416;13.412;2023-03-01T05:43:10;30.67;;;21.13;;
2848;SDS011;59355;52.416;13.412;2023-03-01T05:45:37;30.73;;;23.10;;
2848;SDS011;59355;52.416;13.412;2023-03-01T05:48:03;29.40;;;21.43;;
2848;SDS011;59355;52.416;13.412;2023-03-01T05:50:31;30.50;;;22.47;;
2848;SDS011;59355;52.416;13.412;2023-03-01T05:52:59;29.03;;;22.20;;
2848;SDS011;59355;52.416;13.412;2023-03-01T05:55:25;28.50;;;23.57;;
2848;SDS011;59355;52.416;13.412;2023-03-01T05:57:51;26.37;;;21.47;;
2848;SDS011;59355;52.416;13.412;2023-03-01T06:00:17;29.70;;;21.70;;
2848;SDS011;59355;52.416;13.412;2023-03-01T06:02:44;28.80;;;21.57;;
2848;SDS011;59355;52.416;13.412;2023-03-01T06:05:11;27.27;;;21.60;;
2848;SDS011;59355;52.416;13.412;2023-03-01T06:07:37;32.57;;;22.73;;
2848;SDS011;59355;52.416;13.412;2023-03-01T06:10:03;28.13;;;23.50;;
2848;SDS011;59355;52.416;13.412;2023-03-01T06:12:33;29.83;;;23.23;;
2848;SDS011;59355;52.416;13.412;2023-03-01T06:15:01;33.20;;;23.50;;
2848;SDS011;59355;52.416;13.412;2023-03-01T06:17:28;28.30;;;22.17;;
2848;SDS011;59355;52.416;13.412;2023-03-01T06:19:54;32.80;;;22.20;;
2848;SDS011;59355;52.416;13.412;2023-03-01T06:22:19;29.17;;;21.57;;
2848;SDS011;59355;52.416;13.412;2023-03-01T06:24:45;29.30;;;22.00;;
2848;SDS011;59355;52.416;13.412;2023-03-01T06:27:10;23.97;;;20.33;;
2848;SDS011;59355;52.416;13.412;2023-03-01T06:29:35;31.77;;;23.00;;
2848;SDS011;59355;52.416;13.412;2023-03-01T06:32:02;30.13;;;23.10;;
2848;SDS011;59355;52.416;13.412;2023-03-01T06:34:27;29.80;;;21.03;;
2848;SDS011;59355;52.416;13.412;2023-03-01T06:36:52;25.97;;;21.70;;
2848;SDS011;59355;52.416;13.412;2023-03-01T06:39:18;29.00;;;21.00;;
2848;SDS011;59355;52.416;13.412;2023-03-01T06:41:44;32.00;;;24.10;;
2848;SDS011;59355;52.416;13.412;2023-03-01T06:44:09;35.23;;;23.97;;
2848;SDS011;59355;52.416;13.412;2023-03-01T06:46:34;30.83;;;23.77;;
2848;SDS011;59355;52.416;13.412;2023-03-01T06:49:00;38.50;;;24.70;;
2848;SDS011;59355;52.416;13.412;2023-03-01T06:51:25;34.10;;;23.13;;
2848;SDS011;59355;52.416;13.412;2023-03-01T06:53:50;31.37;;;23.20;;
2848;SDS011;59355;52.416;13.412;2023-03-01T06:56:16;30.67;;;22.80;;
2848;SDS011;59355;52.416;13.412;2023-03-01T06:58:41;33.57;;;24.33;;
2848;SDS011;59355;52.416;13.412;2023-03-01T07:01:07;30.93;;;23.30;;
2848;SDS011;59355;52.416;13.412;2023-03-01T07:03:33;27.63;;;24.50;;
2848;SDS011;59355;52.416;13.412;2023-03-01T07:05:58;28.63;;;23.20;;
2848;SDS011;59355;52.416;13.412;2023-03-01T07:08:23;32.97;;;24.63;;
2848;SDS011;59355;52.416;13.412;2023-03-01T07:10:54;34.10;;;26.03;;
2848;SDS011;59355;52.416;13.412;2023-03-01T07:13:20;27.23;;;24.07;;
2848;SDS011;59355;52.416;13.412;2023-03-01T07:15:45;33.10;;;26.10;;
2848;SDS011;59355;52.416;13.412;2023-03-01T07:18:10;31.37;;;23.73;;
2848;SDS011;59355;52.416;13.412;2023-03-01T07:20:36;30.80;;;22.67;;
2848;SDS011;59355;52.416;13.412;2023-03-01T07:23:01;31.33;;;25.07;;
2848;SDS011;59355;52.416;13.412;2023-03-01T07:25:26;32.10;;;25.33;;
2848;SDS011;59355;52.416;13.412;2023-03-01T07:27:52;30.30;;;25.30;;
2848;SDS011;59355;52.416;13.412;2023-03-01T07:30:18;30.00;;;26.00;;
2848;SDS011;59355;52.416;13.412;2023-03-01T07:32:44;29.13;;;24.60;;
2848;SDS011;59355;52.416;13.412;2023-03-01T07:35:10;40.37;;;31.27;;
2848;SDS011;59355;52.416;13.412;2023-03-01T07:37:35;37.53;;;30.03;;
2848;SDS011;59355;52.416;13.412;2023-03-01T07:40:01;40.57;;;31.83;;
2848;SDS011;59355;52.416;13.412;2023-03-01T07:42:26;33.57;;;27.57;;
2848;SDS011;59355;52.416;13.412;2023-03-01T07:44:51;31.33;;;25.23;;
2848;SDS011;59355;52.416;13.412;2023-03-01T07:47:17;36.60;;;27.90;;
2848;SDS011;59355;52.416;13.412;2023-03-01T07:49:42;35.40;;;24.13;;
2848;SDS011;59355;52.416;13.412;2023-03-01T07:52:09;27.93;;;22.77;;
2848;SDS011;59355;52.416;13.412;2023-03-01T07:54:36;26.83;;;22.60;;
2848;SDS011;59355;52.416;13.412;2023-03-01T07:57:01;29.73;;;22.80;;
2848;SDS011;59355;52.416;13.412;2023-03-01T07:59:26;32.70;;;24.70;;
2848;SDS011;59355;52.416;13.412;2023-03-01T08:01:54;26.57;;;23.03;;
2848;SDS011;59355;52.416;13.412;2023-03-01T08:04:20;28.40;;;23.73;;
2848;SDS011;59355;52.416;13.412;2023-03-01T08:06:45;27.30;;;23.00;;
2848;SDS011;59355;52.416;13.412;2023-03-01T08:09:11;26.43;;;22.40;;
2848;SDS011;59355;52.416;13.412;2023-03-01T08:11:36;30.13;;;22.80;;
2848;SDS011;59355;52.416;13.412;2023-03-01T08:14:02;29.53;;;22.43;;
2848;SDS011;59355;52.416;13.412;2023-03-01T08:16:27;25.67;;;21.77;;
2848;SDS011;59355;52.416;13.412;2023-03-01T08:18:53;24.23;;;21.10;;
2848;SDS011;59355;52.416;13.412;2023-03-01T08:21:21;26.60;;;20.63;;
2848;SDS011;59355;52.416;13.412;2023-03-01T08:23:46;29.03;;;21.17;;
2848;SDS011;59355;52.416;13.412;2023-03-01T08:26:13;33.80;;;23.80;;
2848;SDS011;59355;52.416;13.412;2023-03-01T08:28:39;24.47;;;20.43;;
2848;SDS011;59355;52.416;13.412;2023-03-01T08:31:24;24.37;;;18.40;;
2848;SDS011;59355;52.416;13.412;2023-03-01T08:33:55;25.43;;;20.60;;
2848;SDS011;59355;52.416;13.412;2023-03-01T08:36:25;21.80;;;17.70;;
2848;SDS011;59355;52.416;13.412;2023-03-01T08:38:51;23.23;;;18.40;;
2848;SDS011;59355;52.416;13.412;2023-03-01T08:41:17;19.83;;;17.20;;
2848;SDS011;59355;52.416;13.412;2023-03-01T08:43:43;19.90;;;16.40;;
2848;SDS011;59355;52.416;13.412;2023-03-01T08:46:08;21.00;;;18.80;;
2848;SDS011;59355;52.416;13.412;2023-03-01T08:48:33;20.10;;;17.97;;
2848;SDS011;59355;52.416;13.412;2023-03-01T08:51:14;23.03;;;18.43;;
2848;SDS011;59355;52.416;13.412;2023-03-01T08:53:41;21.63;;;16.33;;
2848;SDS011;59355;52.416;13.412;2023-03-01T08:56:07;17.80;;;15.07;;
2848;SDS011;59355;52.416;13.412;2023-03-01T08:58:33;21.67;;;15.30;;
2848;SDS011;59355;52.416;13.412;2023-03-01T09:00:59;19.40;;;13.30;;
2848;SDS011;59355;52.416;13.412;2023-03-01T09:03:25;17.27;;;13.07;;
2848;SDS011;59355;52.416;13.412;2023-03-01T09:05:51;13.47;;;12.07;;
2848;SDS011;59355;52.416;13.412;2023-03-01T09:08:17;18.47;;;15.07;;
2848;SDS011;59355;52.416;13.412;2023-03-01T09:10:42;15.60;;;13.80;;
2848;SDS011;59355;52.416;13.412;2023-03-01T09:13:08;13.03;;;10.80;;
2848;SDS011;59355;52.416;13.412;2023-03-01T09:15:33;13.47;;;11.60;;
2848;SDS011;59355;52.416;13.412;2023-03-01T09:17:59;14.80;;;11.53;;
2848;SDS011;59355;52.416;13.412;2023-03-01T09:20:24;12.10;;;10.87;;
2848;SDS011;59355;52.416;13.412;2023-03-01T09:22:49;16.53;;;10.53;;
2848;SDS011;59355;52.416;13.412;2023-03-01T09:25:15;16.83;;;11.27;;
2848;SDS011;59355;52.416;13.412;2023-03-01T09:27:40;11.97;;;10.17;;
2848;SDS011;59355;52.416;13.412;2023-03-01T09:30:06;13.53;;;11.80;;
2848;SDS011;59355;52.416;13.412;2023-03-01T09:32:31;15.13;;;11.83;;
2848;SDS011;59355;52.416;13.412;2023-03-01T09:34:57;16.33;;;11.10;;
2848;SDS011;59355;52.416;13.412;2023-03-01T09:37:32;16.33;;;14.67;;
2848;SDS011;59355;52.416;13.412;2023-03-01T09:39:58;18.00;;;12.07;;
2848;SDS011;59355;52.416;13.412;2023-03-01T09:42:23;13.80;;;11.73;;
2848;SDS011;59355;52.416;13.412;2023-03-01T09:44:56;13.73;;;11.13;;
2848;SDS011;59355;52.416;13.412;2023-03-01T09:47:25;14.80;;;10.93;;
2848;SDS011;59355;52.416;13.412;2023-03-01T09:49:57;12.80;;;10.47;;
2848;SDS011;59355;52.416;13.412;2023-03-01T09:52:29;13.53;;;10.80;;
2848;SDS011;59355;52.416;13.412;2023-03-01T09:54:59;9.20;;;7.50;;
2848;SDS011;59355;52.416;13.412;2023-03-01T09:57:26;10.97;;;9.10;;
2848;SDS011;59355;52.416;13.412;2023-03-01T09:59:58;10.53;;;8.80;;
2848;SDS011;59355;52.416;13.412;2023-03-01T10:02:44;10.10;;;9.10;;
2848;SDS011;59355;52.416;13.412;2023-03-01T10:05:25;9.10;;;7.93;;
2848;SDS011;59355;52.416;13.412;2023-03-01T10:10:33;8.97;;;8.03;;
2848;SDS011;59355;52.416;13.412;2023-03-01T10:13:02;40.30;;;9.07;;
2848;SDS011;59355;52.416;13.412;2023-03-01T10:15:41;12.43;;;9.10;;
2848;SDS011;59355;52.416;13.412;2023-03-01T10:18:10;9.30;;;8.40;;
2848;SDS011;59355;52.416;13.412;2023-03-01T10:23:11;11.53;;;8.63;;
2848;SDS011;59355;52.416;13.412;2023-03-01T10:25:42;10.97;;;9.80;;
2848;SDS011;59355;52.416;13.412;2023-03-01T10:28:25;11.10;;;8.97;;
2848;SDS011;59355;52.416;13.412;2023-03-01T10:31:11;10.97;;;9.53;;
2848;SDS011;59355;52.416;13.412;2023-03-01T10:33:38;11.27;;;10.07;;
2848;SDS011;59355;52.416;13.412;2023-03-01T10:36:04;12.40;;;9.70;;
2848;SDS011;59355;52.416;13.412;2023-03-01T10:38:31;8.87;;;7.97;;
2848;SDS011;59355;52.416;13.412;2023-03-01T10:41:12;13.93;;;10.20;;
2848;SDS011;59355;52.416;13.412;2023-03-01T10:46:22;14.90;;;10.00;;
2848;SDS011;59355;52.416;13.412;2023-03-01T10:51:39;15.30;;;12.50;;
2848;SDS011;59355;52.416;13.412;2023-03-01T10:54:05;15.57;;;10.90;;
2848;SDS011;59355;52.416;13.412;2023-03-01T10:56:33;13.43;;;11.10;;
2848;SDS011;59355;52.416;13.412;2023-03-01T10:59:19;15.47;;;12.13;;
2848;SDS011;59355;52.416;13.412;2023-03-01T11:02:01;14.00;;;12.60;;
2848;SDS011;59355;52.416;13.412;2023-03-01T11:04:59;12.33;;;10.90;;
2848;SDS011;59355;52.416;13.412;2023-03-01T11:07:24;15.60;;;12.10;;
2848;SDS011;59355;52.416;13.412;2023-03-01T11:09:50;15.97;;;12.90;;
2848;SDS011;59355;52.416;13.412;2023-03-01T11:12:15;15.23;;;12.23;;
2848;SDS011;59355;52.416;13.412;2023-03-01T11:14:48;15.47;;;11.20;;
2848;SDS011;59355;52.416;13.412;2023-03-01T11:17:28;15.70;;;12.17;;
2848;SDS011;59355;52.416;13.412;2023-03-01T11:22:31;13.63;;;11.00;;
2848;SDS011;59355;52.416;13.412;2023-03-01T11:24:58;13.50;;;11.97;;
2848;SDS011;59355;52.416;13.412;2023-03-01T11:27:26;11.70;;;10.50;;
2848;SDS011;59355;52.416;13.412;2023-03-01T11:30:05;13.10;;;11.80;;
2848;SDS011;59355;52.416;13.412;2023-03-01T11:32:35;15.70;;;11.80;;
2848;SDS011;59355;52.416;13.412;2023-03-01T11:35:21;13.03;;;11.43;;
2848;SDS011;59355;52.416;13.412;2023-03-01T11:38:09;13.00;;;10.30;;
2848;SDS011;59355;52.416;13.412;2023-03-01T11:40:46;13.50;;;10.00;;
2848;SDS011;59355;52.416;13.412;2023-03-01T11:43:21;15.10;;;9.60;;
2848;SDS011;59355;52.416;13.412;2023-03-01T11:45:54;11.00;;;8.93;;
2848;SDS011;59355;52.416;13.412;2023-03-01T11:51:30;9.90;;;8.23;;
2848;SDS011;59355;52.416;13.412;2023-03-01T11:54:02;16.33;;;9.00;;
2848;SDS011;59355;52.416;13.412;2023-03-01T11:56:35;9.47;;;8.07;;
2848;SDS011;59355;52.416;13.412;2023-03-01T12:07:46;8.17;;;7.13;;
2848;SDS011;59355;52.416;13.412;2023-03-01T12:10:23;6.73;;;6.00;;
2848;SDS011;59355;52.416;13.412;2023-03-01T12:13:08;7.40;;;6.33;;
2848;SDS011;59355;52.416;13.412;2023-03-01T12:16:09;5.30;;;4.80;;
2848;SDS011;59355;52.416;13.412;2023-03-01T12:22:09;5.80;;;5.17;;
2848;SDS011;59355;52.416;13.412;2023-03-01T12:24:55;8.57;;;6.10;;
2848;SDS011;59355;52.416;13.412;2023-03-01T12:27:49;8.93;;;5.03;;
2848;SDS011;59355;52.416;13.412;2023-03-01T12:30:31;7.23;;;5.40;;
2848;SDS011;59355;52.416;13.412;2023-03-01T12:33:08;6.93;;;4.90;;
2848;SDS011;59355;52.416;13.412;2023-03-01T12:35:49;6.30;;;4.93;;
2848;SDS011;59355;52.416;13.412;2023-03-01T12:38:59;7.57;;;5.07;;
2848;SDS011;59355;52.416;13.412;2023-03-01T12:41:58;8.57;;;5.30;;
2848;SDS011;59355;52.416;13.412;2023-03-01T12:47:46;7.77;;;4.60;;
2848;SDS011;59355;52.416;13.412;2023-03-01T12:50:21;10.50;;;5.03;;
2848;SDS011;59355;52.416;13.412;2023-03-01T12:52:50;9.93;;;4.30;;
2848;SDS011;59355;52.416;13.412;2023-03-01T12:55:19;7.90;;;4.53;;
2848;SDS011;59355;52.416;13.412;2023-03-01T12:58:00;8.03;;;4.93;;
2848;SDS011;59355;52.416;13.412;2023-03-01T13:00:52;13.63;;;5.17;;
2848;SDS011;59355;52.416;13.412;2023-03-01T13:04:01;8.43;;;5.07;;
2848;SDS011;59355;52.416;13.412;2023-03-01T13:06:44;7.47;;;5.07;;
2848;SDS011;59355;52.416;13.412;2023-03-01T13:09:27;7.40;;;5.57;;
2848;SDS011;59355;52.416;13.412;2023-03-01T13:11:57;5.70;;;4.77;;
2848;SDS011;59355;52.416;13.412;2023-03-01T13:16:48;6.83;;;4.80;;
2848;SDS011;59355;52.416;13.412;2023-03-01T13:19:21;5.73;;;4.90;;
2848;SDS011;59355;52.416;13.412;2023-03-01T13:21:47;5.83;;;4.87;;
2848;SDS011;59355;52.416;13.412;2023-03-01T13:29:32;5.27;;;4.73;;
2848;SDS011;59355;52.416;13.412;2023-03-01T13:32:12;7.73;;;5.00;;
2848;SDS011;59355;52.416;13.412;2023-03-01T13:34:45;8.90;;;4.80;;
2848;SDS011;59355;52.416;13.412;2023-03-01T13:37:18;4.70;;;3.63;;
2848;SDS011;59355;52.416;13.412;2023-03-01T13:39:46;8.80;;;4.33;;
2848;SDS011;59355;52.416;13.412;2023-03-01T13:44:57;4.30;;;3.90;;
2848;SDS011;59355;52.416;13.412;2023-03-01T13:47:23;5.77;;;4.07;;
2848;SDS011;59355;52.416;13.412;2023-03-01T13:49:55;4.50;;;3.80;;
2848;SDS011;59355;52.416;13.412;2023-03-01T13:52:30;5.67;;;4.13;;
2848;SDS011;59355;52.416;13.412;2023-03-01T13:57:38;7.50;;;3.90;;
2848;SDS011;59355;52.416;13.412;2023-03-01T14:00:04;4.50;;;3.63;;
2848;SDS011;59355;52.416;13.412;2023-03-01T14:02:30;5.00;;;3.70;;
2848;SDS011;59355;52.416;13.412;2023-03-01T14:04:57;6.33;;;4.77;;
2848;SDS011;59355;52.416;13.412;2023-03-01T14:07:23;4.27;;;3.87;;
2848;SDS011;59355;52.416;13.412;2023-03-01T14:09:51;6.47;;;4.23;;
2848;SDS011;59355;52.416;13.412;2023-03-01T14:12:26;5.23;;;3.97;;
2848;SDS011;59355;52.416;13.412;2023-03-01T14:15:12;6.33;;;4.23;;
2848;SDS011;59355;52.416;13.412;2023-03-01T14:20:42;8.30;;;4.50;;
2848;SDS011;59355;52.416;13.412;2023-03-01T14:23:11;4.57;;;3.90;;
2848;SDS011;59355;52.416;13.412;2023-03-01T14:25:38;4.20;;;3.63;;
2848;SDS011;59355;52.416;13.412;2023-03-01T14:28:04;6.40;;;4.00;;
2848;SDS011;59355;52.416;13.412;2023-03-01T14:30:38;4.67;;;4.07;;
2848;SDS011;59355;52.416;13.412;2023-03-01T14:33:16;5.33;;;4.20;;
2848;SDS011;59355;52.416;13.412;2023-03-01T14:35:55;5.70;;;3.93;;
2848;SDS011;59355;52.416;13.412;2023-03-01T14:38:38;6.43;;;4.83;;
2848;SDS011;59355;52.416;13.412;2023-03-01T14:41:07;5.10;;;4.23;;
2848;SDS011;59355;52.416;13.412;2023-03-01T14:43:36;5.53;;;3.77;;
2848;SDS011;59355;52.416;13.412;2023-03-01T14:46:02;6.13;;;4.50;;
2848;SDS011;59355;52.416;13.412;2023-03-01T14:48:28;4.63;;;4.00;;
2848;SDS011;59355;52.416;13.412;2023-03-01T14:50:54;7.90;;;5.50;;
2848;SDS011;59355;52.416;13.412;2023-03-01T14:53:20;5.80;;;4.90;;
2848;SDS011;59355;52.416;13.412;2023-03-01T14:55:49;5.13;;;4.37;;
2848;SDS011;59355;52.416;13.412;2023-03-01T14:58:19;6.10;;;4.80;;
2848;SDS011;59355;52.416;13.412;2023-03-01T15:00:51;6.77;;;5.20;;
2848;SDS011;59355;52.416;13.412;2023-03-01T15:03:31;8.40;;;4.97;;
2848;SDS011;59355;52.416;13.412;2023-03-01T15:06:00;5.23;;;4.60;;
2848;SDS011;59355;52.416;13.412;2023-03-01T15:08:26;6.23;;;4.50;;
2848;SDS011;59355;52.416;13.412;2023-03-01T15:11:02;10.00;;;4.70;;
2848;SDS011;59355;52.416;13.412;2023-03-01T15:13:40;5.67;;;5.10;;
2848;SDS011;59355;52.416;13.412;2023-03-01T15:16:13;6.80;;;4.53;;
2848;SDS011;59355;52.416;13.412;2023-03-01T15:18:43;6.87;;;5.50;;
2848;SDS011;59355;52.416;13.412;2023-03-01T15:21:15;6.13;;;4.60;;
2848;SDS011;59355;52.416;13.412;2023-03-01T15:23:49;4.97;;;4.30;;
2848;SDS011;59355;52.416;13.412;2023-03-01T15:26:30;4.50;;;4.10;;
2848;SDS011;59355;52.416;13.412;2023-03-01T15:28:56;6.10;;;4.27;;
2848;SDS011;59355;52.416;13.412;2023-03-01T15:31:24;4.80;;;4.13;;
2848;SDS011;59355;52.416;13.412;2023-03-01T15:33:51;11.57;;;4.80;;
2848;SDS011;59355;52.416;13.412;2023-03-01T15:36:30;6.13;;;4.30;;